sensor_id;sensor_type;location;lat;lon;timestamp;P1;durP1;ratioP1;P2;durP2;ratioP2
48823;SDS011;34640;53.590;10.054;2022-07-11T00:00:40;9.32;;;1.20;;
48823;SDS011;34640;53.590;10.054;2022-07-11T00:03:13;6.88;;;1.40;;
48823;SDS011;34640;53.590;10.054;2022-07-11T00:05:46;5.78;;;1.33;;
48823;SDS011;34640;53.590;10.054;2022-07-11T00:08:21;8.73;;;2.00;;
48823;SDS011;34640;53.590;10.054;2022-07-11T00:10:53;7.07;;;1.52;;
48823;SDS011;34640;53.590;10.054;2022-07-11T00:13:27;7.78;;;1.33;;
48823;SDS011;34640;53.590;10.054;2022-07-11T00:16:00;7.28;;;1.50;;
48823;SDS011;34640;53.590;10.054;2022-07-11T00:18:33;10.07;;;1.40;;
48823;SDS011;34640;53.590;10.054;2022-07-11T00:21:06;9.25;;;1.80;;
48823;SDS011;34640;53.590;10.054;2022-07-11T00:23:41;7.57;;;1.30;;
48823;SDS011;34640;53.590;10.054;2022-07-11T00:26:16;10.10;;;1.55;;
48823;SDS011;34640;53.590;10.054;2022-07-11T00:28:49;5.75;;;1.20;;
48823;SDS011;34640;53.590;10.054;2022-07-11T00:31:22;7.25;;;1.48;;
48823;SDS011;34640;53.590;10.054;2022-07-11T00:33:57;5.07;;;1.30;;
48823;SDS011;34640;53.590;10.054;2022-07-11T00:36:30;8.82;;;1.60;;
48823;SDS011;34640;53.590;10.054;2022-07-11T00:39:05;7.80;;;1.63;;
48823;SDS011;34640;53.590;10.054;2022-07-11T00:41:38;4.63;;;1.77;;
48823;SDS011;34640;53.590;10.054;2022-07-11T00:44:12;6.70;;;1.20;;
48823;SDS011;34640;53.590;10.054;2022-07-11T00:46:45;7.00;;;1.63;;
48823;SDS011;34640;53.590;10.054;2022-07-11T00:49:18;5.03;;;1.35;;
48823;SDS011;34640;53.590;10.054;2022-07-11T00:51:51;5.43;;;1.20;;
48823;SDS011;34640;53.590;10.054;2022-07-11T00:54:26;6.88;;;1.00;;
48823;SDS011;34640;53.590;10.054;2022-07-11T00:57:00;5.55;;;1.40;;
48823;SDS011;34640;53.590;10.054;2022-07-11T00:59:33;10.57;;;1.60;;
48823;SDS011;34640;53.590;10.054;2022-07-11T01:02:07;8.52;;;1.10;;
48823;SDS011;34640;53.590;10.054;2022-07-11T01:04:40;7.40;;;1.50;;
48823;SDS011;34640;53.590;10.054;2022-07-11T01:07:13;6.97;;;1.35;;
48823;SDS011;34640;53.590;10.054;2022-07-11T01:09:48;8.63;;;1.45;;
48823;SDS011;34640;53.590;10.054;2022-07-11T01:12:22;6.03;;;1.15;;
48823;SDS011;34640;53.590;10.054;2022-07-11T01:14:56;6.03;;;1.38;;
48823;SDS011;34640;53.590;10.054;2022-07-11T01:17:30;6.47;;;1.52;;
48823;SDS011;34640;53.590;10.054;2022-07-11T01:20:03;10.18;;;1.77;;
48823;SDS011;34640;53.590;10.054;2022-07-11T01:22:39;4.78;;;1.55;;
48823;SDS011;34640;53.590;10.054;2022-07-11T01:25:17;6.28;;;1.20;;
48823;SDS011;34640;53.590;10.054;2022-07-11T01:28:02;6.85;;;1.73;;
48823;SDS011;34640;53.590;10.054;2022-07-11T01:30:37;9.93;;;1.40;;
48823;SDS011;34640;53.590;10.054;2022-07-11T01:33:10;5.45;;;1.02;;
48823;SDS011;34640;53.590;10.054;2022-07-11T01:35:43;5.63;;;0.93;;
48823;SDS011;34640;53.590;10.054;2022-07-11T01:38:17;10.95;;;1.27;;
48823;SDS011;34640;53.590;10.054;2022-07-11T01:40:51;4.28;;;1.05;;
48823;SDS011;34640;53.590;10.054;2022-07-11T01:43:24;10.98;;;1.85;;
48823;SDS011;34640;53.590;10.054;2022-07-11T01:45:58;10.00;;;1.52;;
48823;SDS011;34640;53.590;10.054;2022-07-11T01:48:31;3.78;;;1.00;;
48823;SDS011;34640;53.590;10.054;2022-07-11T01:51:04;5.55;;;1.00;;
48823;SDS011;34640;53.590;10.054;2022-07-11T01:53:37;6.63;;;1.20;;
48823;SDS011;34640;53.590;10.054;2022-07-11T01:56:17;4.30;;;0.80;;
48823;SDS011;34640;53.590;10.054;2022-07-11T01:58:57;6.78;;;1.20;;
48823;SDS011;34640;53.590;10.054;2022-07-11T02:01:30;5.80;;;1.00;;
48823;SDS011;34640;53.590;10.054;2022-07-11T02:04:04;10.07;;;1.30;;
48823;SDS011;34640;53.590;10.054;2022-07-11T02:06:37;5.22;;;1.00;;
48823;SDS011;34640;53.590;10.054;2022-07-11T02:09:10;4.05;;;0.90;;
48823;SDS011;34640;53.590;10.054;2022-07-11T02:11:44;5.80;;;1.10;;
48823;SDS011;34640;53.590;10.054;2022-07-11T02:14:17;6.47;;;1.27;;
48823;SDS011;34640;53.590;10.054;2022-07-11T02:16:52;8.90;;;2.15;;
48823;SDS011;34640;53.590;10.054;2022-07-11T02:19:25;9.65;;;2.60;;
48823;SDS011;34640;53.590;10.054;2022-07-11T02:21:58;6.13;;;1.00;;
48823;SDS011;34640;53.590;10.054;2022-07-11T02:24:37;5.38;;;1.40;;
48823;SDS011;34640;53.590;10.054;2022-07-11T02:27:11;6.80;;;1.00;;
48823;SDS011;34640;53.590;10.054;2022-07-11T02:29:45;6.93;;;1.23;;
48823;SDS011;34640;53.590;10.054;2022-07-11T02:32:18;8.75;;;1.55;;
48823;SDS011;34640;53.590;10.054;2022-07-11T02:34:51;4.65;;;0.85;;
48823;SDS011;34640;53.590;10.054;2022-07-11T02:37:24;3.03;;;1.05;;
48823;SDS011;34640;53.590;10.054;2022-07-11T02:39:57;5.05;;;1.10;;
48823;SDS011;34640;53.590;10.054;2022-07-11T02:42:32;8.88;;;1.50;;
48823;SDS011;34640;53.590;10.054;2022-07-11T02:45:05;3.40;;;1.20;;
48823;SDS011;34640;53.590;10.054;2022-07-11T02:47:39;6.88;;;1.20;;
48823;SDS011;34640;53.590;10.054;2022-07-11T02:50:13;8.15;;;1.15;;
48823;SDS011;34640;53.590;10.054;2022-07-11T02:52:47;6.03;;;1.40;;
48823;SDS011;34640;53.590;10.054;2022-07-11T02:55:20;4.18;;;1.17;;
48823;SDS011;34640;53.590;10.054;2022-07-11T02:57:55;7.68;;;1.30;;
48823;SDS011;34640;53.590;10.054;2022-07-11T03:00:28;3.70;;;1.05;;
48823;SDS011;34640;53.590;10.054;2022-07-11T03:03:01;8.60;;;1.13;;
48823;SDS011;34640;53.590;10.054;2022-07-11T03:05:34;5.38;;;1.10;;
48823;SDS011;34640;53.590;10.054;2022-07-11T03:08:07;9.13;;;1.27;;
48823;SDS011;34640;53.590;10.054;2022-07-11T03:10:40;4.68;;;1.10;;
48823;SDS011;34640;53.590;10.054;2022-07-11T03:13:14;3.05;;;1.10;;
48823;SDS011;34640;53.590;10.054;2022-07-11T03:15:47;6.22;;;1.30;;
48823;SDS011;34640;53.590;10.054;2022-07-11T03:18:20;5.90;;;1.73;;
48823;SDS011;34640;53.590;10.054;2022-07-11T03:20:53;4.90;;;1.38;;
48823;SDS011;34640;53.590;10.054;2022-07-11T03:23:26;7.78;;;1.65;;
48823;SDS011;34640;53.590;10.054;2022-07-11T03:25:59;6.80;;;1.58;;
48823;SDS011;34640;53.590;10.054;2022-07-11T03:28:39;4.82;;;1.20;;
48823;SDS011;34640;53.590;10.054;2022-07-11T03:31:11;3.58;;;1.15;;
48823;SDS011;34640;53.590;10.054;2022-07-11T03:33:45;5.78;;;1.70;;
48823;SDS011;34640;53.590;10.054;2022-07-11T03:36:18;8.57;;;1.27;;
48823;SDS011;34640;53.590;10.054;2022-07-11T03:38:51;5.43;;;1.75;;
48823;SDS011;34640;53.590;10.054;2022-07-11T03:41:24;5.72;;;1.10;;
48823;SDS011;34640;53.590;10.054;2022-07-11T03:43:58;5.25;;;1.20;;
48823;SDS011;34640;53.590;10.054;2022-07-11T03:46:31;5.10;;;1.23;;
48823;SDS011;34640;53.590;10.054;2022-07-11T03:49:04;4.95;;;1.75;;
48823;SDS011;34640;53.590;10.054;2022-07-11T03:51:37;5.18;;;1.02;;
48823;SDS011;34640;53.590;10.054;2022-07-11T03:54:10;4.75;;;1.20;;
48823;SDS011;34640;53.590;10.054;2022-07-11T03:56:43;4.05;;;1.02;;
48823;SDS011;34640;53.590;10.054;2022-07-11T03:59:17;4.80;;;1.80;;
48823;SDS011;34640;53.590;10.054;2022-07-11T04:01:50;12.73;;;2.53;;
48823;SDS011;34640;53.590;10.054;2022-07-11T04:04:24;7.78;;;2.05;;
48823;SDS011;34640;53.590;10.054;2022-07-11T04:06:57;10.70;;;1.80;;
48823;SDS011;34640;53.590;10.054;2022-07-11T04:09:30;4.82;;;1.35;;
48823;SDS011;34640;53.590;10.054;2022-07-11T04:12:03;7.82;;;1.10;;
48823;SDS011;34640;53.590;10.054;2022-07-11T04:14:38;5.30;;;1.20;;
48823;SDS011;34640;53.590;10.054;2022-07-11T04:17:11;5.35;;;1.30;;
48823;SDS011;34640;53.590;10.054;2022-07-11T04:19:44;5.63;;;1.20;;
48823;SDS011;34640;53.590;10.054;2022-07-11T04:22:17;6.10;;;1.27;;
48823;SDS011;34640;53.590;10.054;2022-07-11T04:24:50;5.63;;;1.20;;
48823;SDS011;34640;53.590;10.054;2022-07-11T04:27:23;7.32;;;1.30;;
48823;SDS011;34640;53.590;10.054;2022-07-11T04:30:02;6.15;;;1.30;;
48823;SDS011;34640;53.590;10.054;2022-07-11T04:32:37;2.70;;;1.00;;
48823;SDS011;34640;53.590;10.054;2022-07-11T04:35:10;7.95;;;1.52;;
48823;SDS011;34640;53.590;10.054;2022-07-11T04:37:43;8.13;;;1.30;;
48823;SDS011;34640;53.590;10.054;2022-07-11T04:40:16;8.05;;;1.40;;
48823;SDS011;34640;53.590;10.054;2022-07-11T04:42:50;10.85;;;1.30;;
48823;SDS011;34640;53.590;10.054;2022-07-11T04:45:25;8.23;;;1.77;;
48823;SDS011;34640;53.590;10.054;2022-07-11T04:47:58;13.45;;;1.77;;
48823;SDS011;34640;53.590;10.054;2022-07-11T04:50:33;11.07;;;2.00;;
48823;SDS011;34640;53.590;10.054;2022-07-11T04:53:06;8.60;;;2.33;;
48823;SDS011;34640;53.590;10.054;2022-07-11T04:55:39;10.05;;;2.00;;
48823;SDS011;34640;53.590;10.054;2022-07-11T04:58:12;6.25;;;1.42;;
48823;SDS011;34640;53.590;10.054;2022-07-11T05:00:47;9.90;;;1.80;;
48823;SDS011;34640;53.590;10.054;2022-07-11T05:03:20;11.30;;;2.38;;
48823;SDS011;34640;53.590;10.054;2022-07-11T05:05:53;10.48;;;1.70;;
48823;SDS011;34640;53.590;10.054;2022-07-11T05:08:26;10.23;;;1.75;;
48823;SDS011;34640;53.590;10.054;2022-07-11T05:11:00;15.70;;;7.70;;
48823;SDS011;34640;53.590;10.054;2022-07-11T05:13:34;6.57;;;1.52;;
48823;SDS011;34640;53.590;10.054;2022-07-11T05:16:10;7.55;;;1.95;;
48823;SDS011;34640;53.590;10.054;2022-07-11T05:18:44;7.70;;;1.30;;
48823;SDS011;34640;53.590;10.054;2022-07-11T05:21:17;11.38;;;1.70;;
48823;SDS011;34640;53.590;10.054;2022-07-11T05:23:53;15.40;;;1.90;;
48823;SDS011;34640;53.590;10.054;2022-07-11T05:26:26;12.10;;;2.63;;
48823;SDS011;34640;53.590;10.054;2022-07-11T05:28:59;12.10;;;1.50;;
48823;SDS011;34640;53.590;10.054;2022-07-11T05:31:34;9.93;;;1.48;;
48823;SDS011;34640;53.590;10.054;2022-07-11T05:34:07;7.97;;;1.55;;
48823;SDS011;34640;53.590;10.054;2022-07-11T05:36:40;8.15;;;1.80;;
48823;SDS011;34640;53.590;10.054;2022-07-11T05:39:14;9.52;;;1.65;;
48823;SDS011;34640;53.590;10.054;2022-07-11T05:41:47;12.18;;;1.60;;
48823;SDS011;34640;53.590;10.054;2022-07-11T05:44:23;9.77;;;1.38;;
48823;SDS011;34640;53.590;10.054;2022-07-11T05:47:00;6.55;;;1.33;;
48823;SDS011;34640;53.590;10.054;2022-07-11T05:49:34;9.07;;;1.65;;
48823;SDS011;34640;53.590;10.054;2022-07-11T05:52:07;5.22;;;0.90;;
48823;SDS011;34640;53.590;10.054;2022-07-11T05:54:41;12.18;;;1.70;;
48823;SDS011;34640;53.590;10.054;2022-07-11T05:57:14;4.85;;;1.17;;
48823;SDS011;34640;53.590;10.054;2022-07-11T05:59:46;8.25;;;1.30;;
48823;SDS011;34640;53.590;10.054;2022-07-11T06:02:21;5.45;;;1.00;;
48823;SDS011;34640;53.590;10.054;2022-07-11T06:04:54;10.13;;;1.77;;
48823;SDS011;34640;53.590;10.054;2022-07-11T06:07:27;7.93;;;1.67;;
48823;SDS011;34640;53.590;10.054;2022-07-11T06:10:18;6.60;;;1.85;;
48823;SDS011;34640;53.590;10.054;2022-07-11T06:12:51;6.10;;;1.00;;
48823;SDS011;34640;53.590;10.054;2022-07-11T06:15:24;5.45;;;1.02;;
48823;SDS011;34640;53.590;10.054;2022-07-11T06:17:59;8.75;;;1.20;;
48823;SDS011;34640;53.590;10.054;2022-07-11T06:20:32;3.50;;;1.02;;
48823;SDS011;34640;53.590;10.054;2022-07-11T06:23:05;5.28;;;1.20;;
48823;SDS011;34640;53.590;10.054;2022-07-11T06:25:38;7.20;;;1.13;;
48823;SDS011;34640;53.590;10.054;2022-07-11T06:28:11;11.43;;;1.20;;
48823;SDS011;34640;53.590;10.054;2022-07-11T06:30:44;4.07;;;0.93;;
48823;SDS011;34640;53.590;10.054;2022-07-11T06:33:19;4.40;;;1.02;;
48823;SDS011;34640;53.590;10.054;2022-07-11T06:35:55;9.73;;;1.55;;
48823;SDS011;34640;53.590;10.054;2022-07-11T06:38:28;5.07;;;1.10;;
48823;SDS011;34640;53.590;10.054;2022-07-11T06:41:01;4.10;;;1.20;;
48823;SDS011;34640;53.590;10.054;2022-07-11T06:43:34;5.97;;;1.10;;
48823;SDS011;34640;53.590;10.054;2022-07-11T06:46:07;5.18;;;1.00;;
48823;SDS011;34640;53.590;10.054;2022-07-11T06:48:41;6.43;;;1.05;;
48823;SDS011;34640;53.590;10.054;2022-07-11T06:51:15;7.68;;;1.30;;
48823;SDS011;34640;53.590;10.054;2022-07-11T06:53:48;7.90;;;1.10;;
48823;SDS011;34640;53.590;10.054;2022-07-11T06:56:21;6.80;;;1.20;;
48823;SDS011;34640;53.590;10.054;2022-07-11T06:58:54;5.88;;;1.02;;
48823;SDS011;34640;53.590;10.054;2022-07-11T07:01:27;5.90;;;0.77;;
48823;SDS011;34640;53.590;10.054;2022-07-11T07:04:01;5.38;;;0.98;;
48823;SDS011;34640;53.590;10.054;2022-07-11T07:06:34;9.38;;;1.10;;
48823;SDS011;34640;53.590;10.054;2022-07-11T07:09:07;5.93;;;0.90;;
48823;SDS011;34640;53.590;10.054;2022-07-11T07:11:40;5.07;;;1.10;;
48823;SDS011;34640;53.590;10.054;2022-07-11T07:14:13;2.42;;;0.73;;
48823;SDS011;34640;53.590;10.054;2022-07-11T07:16:46;3.85;;;0.75;;
48823;SDS011;34640;53.590;10.054;2022-07-11T07:19:21;8.43;;;1.00;;
48823;SDS011;34640;53.590;10.054;2022-07-11T07:21:54;8.18;;;1.25;;
48823;SDS011;34640;53.590;10.054;2022-07-11T07:24:27;5.20;;;1.05;;
48823;SDS011;34640;53.590;10.054;2022-07-11T07:26:59;5.40;;;1.10;;
48823;SDS011;34640;53.590;10.054;2022-07-11T07:29:32;4.95;;;1.30;;
48823;SDS011;34640;53.590;10.054;2022-07-11T07:32:06;6.90;;;1.20;;
48823;SDS011;34640;53.590;10.054;2022-07-11T07:34:41;3.67;;;1.00;;
48823;SDS011;34640;53.590;10.054;2022-07-11T07:37:15;3.22;;;0.65;;
48823;SDS011;34640;53.590;10.054;2022-07-11T07:39:48;10.45;;;1.50;;
48823;SDS011;34640;53.590;10.054;2022-07-11T07:42:20;4.68;;;0.60;;
48823;SDS011;34640;53.590;10.054;2022-07-11T07:44:53;6.60;;;0.63;;
48823;SDS011;34640;53.590;10.054;2022-07-11T07:47:29;4.20;;;1.17;;
48823;SDS011;34640;53.590;10.054;2022-07-11T07:50:04;5.63;;;1.08;;
48823;SDS011;34640;53.590;10.054;2022-07-11T07:52:38;8.95;;;1.40;;
48823;SDS011;34640;53.590;10.054;2022-07-11T07:55:11;7.45;;;1.00;;
48823;SDS011;34640;53.590;10.054;2022-07-11T07:57:45;3.88;;;0.75;;
48823;SDS011;34640;53.590;10.054;2022-07-11T08:00:18;4.63;;;1.05;;
48823;SDS011;34640;53.590;10.054;2022-07-11T08:03:09;8.50;;;1.10;;
48823;SDS011;34640;53.590;10.054;2022-07-11T08:05:43;2.13;;;0.70;;
48823;SDS011;34640;53.590;10.054;2022-07-11T08:08:17;3.50;;;0.93;;
48823;SDS011;34640;53.590;10.054;2022-07-11T08:10:50;4.53;;;1.00;;
48823;SDS011;34640;53.590;10.054;2022-07-11T08:13:23;4.32;;;0.98;;
48823;SDS011;34640;53.590;10.054;2022-07-11T08:15:56;7.03;;;0.90;;
48823;SDS011;34640;53.590;10.054;2022-07-11T08:18:30;2.85;;;0.85;;
48823;SDS011;34640;53.590;10.054;2022-07-11T08:21:09;5.47;;;0.77;;
48823;SDS011;34640;53.590;10.054;2022-07-11T08:23:44;3.95;;;0.98;;
48823;SDS011;34640;53.590;10.054;2022-07-11T08:26:18;2.13;;;0.60;;
48823;SDS011;34640;53.590;10.054;2022-07-11T08:28:51;5.57;;;1.13;;
48823;SDS011;34640;53.590;10.054;2022-07-11T08:31:24;2.58;;;1.00;;
48823;SDS011;34640;53.590;10.054;2022-07-11T08:33:58;3.63;;;0.50;;
48823;SDS011;34640;53.590;10.054;2022-07-11T08:36:33;1.80;;;0.60;;
48823;SDS011;34640;53.590;10.054;2022-07-11T08:39:07;4.80;;;0.43;;
48823;SDS011;34640;53.590;10.054;2022-07-11T08:41:42;3.17;;;0.77;;
48823;SDS011;34640;53.590;10.054;2022-07-11T08:44:15;1.60;;;0.57;;
48823;SDS011;34640;53.590;10.054;2022-07-11T08:46:49;4.45;;;0.63;;
48823;SDS011;34640;53.590;10.054;2022-07-11T08:49:23;3.03;;;0.50;;
48823;SDS011;34640;53.590;10.054;2022-07-11T08:51:58;4.93;;;1.20;;
48823;SDS011;34640;53.590;10.054;2022-07-11T08:54:31;3.42;;;1.13;;
48823;SDS011;34640;53.590;10.054;2022-07-11T08:57:05;3.40;;;1.33;;
48823;SDS011;34640;53.590;10.054;2022-07-11T08:59:38;3.60;;;1.20;;
48823;SDS011;34640;53.590;10.054;2022-07-11T09:02:14;3.53;;;0.80;;
48823;SDS011;34640;53.590;10.054;2022-07-11T09:04:48;2.97;;;0.80;;
48823;SDS011;34640;53.590;10.054;2022-07-11T09:07:23;4.65;;;0.68;;
48823;SDS011;34640;53.590;10.054;2022-07-11T09:09:56;2.55;;;0.80;;
48823;SDS011;34640;53.590;10.054;2022-07-11T09:12:29;4.63;;;0.65;;
48823;SDS011;34640;53.590;10.054;2022-07-11T09:15:03;2.58;;;0.60;;
48823;SDS011;34640;53.590;10.054;2022-07-11T09:17:37;3.40;;;0.77;;
48823;SDS011;34640;53.590;10.054;2022-07-11T09:20:09;3.72;;;0.90;;
48823;SDS011;34640;53.590;10.054;2022-07-11T09:22:44;1.35;;;0.57;;
48823;SDS011;34640;53.590;10.054;2022-07-11T09:25:41;3.72;;;0.88;;
48823;SDS011;34640;53.590;10.054;2022-07-11T09:28:14;2.75;;;0.68;;
48823;SDS011;34640;53.590;10.054;2022-07-11T09:30:47;4.88;;;1.05;;
48823;SDS011;34640;53.590;10.054;2022-07-11T09:33:20;2.78;;;0.60;;
48823;SDS011;34640;53.590;10.054;2022-07-11T09:35:53;4.13;;;0.50;;
48823;SDS011;34640;53.590;10.054;2022-07-11T09:38:28;1.45;;;0.32;;
48823;SDS011;34640;53.590;10.054;2022-07-11T09:41:02;5.35;;;0.57;;
48823;SDS011;34640;53.590;10.054;2022-07-11T09:43:43;2.13;;;0.65;;
48823;SDS011;34640;53.590;10.054;2022-07-11T09:46:18;3.40;;;0.60;;
48823;SDS011;34640;53.590;10.054;2022-07-11T09:48:56;1.15;;;0.30;;
48823;SDS011;34640;53.590;10.054;2022-07-11T09:51:30;4.07;;;0.82;;
48823;SDS011;34640;53.590;10.054;2022-07-11T09:54:06;6.13;;;2.67;;
48823;SDS011;34640;53.590;10.054;2022-07-11T09:56:40;3.20;;;0.70;;
48823;SDS011;34640;53.590;10.054;2022-07-11T09:59:30;3.42;;;0.63;;
48823;SDS011;34640;53.590;10.054;2022-07-11T10:02:03;1.55;;;0.50;;
48823;SDS011;34640;53.590;10.054;2022-07-11T10:04:36;1.90;;;0.40;;
48823;SDS011;34640;53.590;10.054;2022-07-11T10:07:10;2.83;;;0.50;;
48823;SDS011;34640;53.590;10.054;2022-07-11T10:09:45;2.28;;;0.50;;
48823;SDS011;34640;53.590;10.054;2022-07-11T10:12:18;2.70;;;1.15;;
48823;SDS011;34640;53.590;10.054;2022-07-11T10:14:52;2.45;;;0.80;;
48823;SDS011;34640;53.590;10.054;2022-07-11T10:17:28;3.50;;;0.50;;
48823;SDS011;34640;53.590;10.054;2022-07-11T10:20:09;4.22;;;0.50;;
48823;SDS011;34640;53.590;10.054;2022-07-11T10:22:49;1.38;;;0.40;;
48823;SDS011;34640;53.590;10.054;2022-07-11T10:25:32;4.43;;;0.60;;
48823;SDS011;34640;53.590;10.054;2022-07-11T10:28:11;4.38;;;0.52;;
48823;SDS011;34640;53.590;10.054;2022-07-11T10:30:54;2.53;;;0.88;;
48823;SDS011;34640;53.590;10.054;2022-07-11T10:33:31;1.95;;;0.60;;
48823;SDS011;34640;53.590;10.054;2022-07-11T10:36:04;3.88;;;0.60;;
48823;SDS011;34640;53.590;10.054;2022-07-11T10:38:38;6.72;;;3.33;;
48823;SDS011;34640;53.590;10.054;2022-07-11T10:41:21;2.35;;;0.75;;
48823;SDS011;34640;53.590;10.054;2022-07-11T10:43:54;3.35;;;1.05;;
48823;SDS011;34640;53.590;10.054;2022-07-11T10:46:30;2.25;;;0.50;;
48823;SDS011;34640;53.590;10.054;2022-07-11T10:49:07;1.77;;;0.52;;
48823;SDS011;34640;53.590;10.054;2022-07-11T10:51:51;5.15;;;0.95;;
48823;SDS011;34640;53.590;10.054;2022-07-11T10:54:52;1.17;;;0.70;;
48823;SDS011;34640;53.590;10.054;2022-07-11T10:57:40;1.95;;;0.43;;
48823;SDS011;34640;53.590;10.054;2022-07-11T11:00:22;0.90;;;0.45;;
48823;SDS011;34640;53.590;10.054;2022-07-11T11:02:59;2.38;;;0.52;;
48823;SDS011;34640;53.590;10.054;2022-07-11T11:05:39;3.17;;;0.67;;
48823;SDS011;34640;53.590;10.054;2022-07-11T11:11:33;3.00;;;0.50;;
48823;SDS011;34640;53.590;10.054;2022-07-11T11:16:51;1.17;;;0.50;;
48823;SDS011;34640;53.590;10.054;2022-07-11T11:22:23;3.55;;;0.60;;
48823;SDS011;34640;53.590;10.054;2022-07-11T11:25:01;2.05;;;0.60;;
48823;SDS011;34640;53.590;10.054;2022-07-11T11:28:00;3.13;;;0.82;;
48823;SDS011;34640;53.590;10.054;2022-07-11T11:30:37;2.92;;;0.88;;
48823;SDS011;34640;53.590;10.054;2022-07-11T11:33:16;2.92;;;0.90;;
48823;SDS011;34640;53.590;10.054;2022-07-11T11:35:57;1.55;;;0.80;;
48823;SDS011;34640;53.590;10.054;2022-07-11T11:38:32;3.70;;;0.98;;
48823;SDS011;34640;53.590;10.054;2022-07-11T11:41:13;1.92;;;0.80;;
48823;SDS011;34640;53.590;10.054;2022-07-11T11:43:47;2.05;;;0.47;;
48823;SDS011;34640;53.590;10.054;2022-07-11T11:46:24;5.03;;;1.08;;
48823;SDS011;34640;53.590;10.054;2022-07-11T11:48:57;3.65;;;1.27;;
48823;SDS011;34640;53.590;10.054;2022-07-11T11:51:32;3.67;;;1.63;;
48823;SDS011;34640;53.590;10.054;2022-07-11T11:54:05;2.55;;;1.17;;
48823;SDS011;34640;53.590;10.054;2022-07-11T11:56:38;3.22;;;0.90;;
48823;SDS011;34640;53.590;10.054;2022-07-11T11:59:12;1.83;;;0.77;;
48823;SDS011;34640;53.590;10.054;2022-07-11T12:01:50;4.47;;;2.65;;
48823;SDS011;34640;53.590;10.054;2022-07-11T12:04:23;7.40;;;2.97;;
48823;SDS011;34640;53.590;10.054;2022-07-11T12:06:56;1.60;;;0.80;;
48823;SDS011;34640;53.590;10.054;2022-07-11T12:09:30;3.45;;;0.98;;
48823;SDS011;34640;53.590;10.054;2022-07-11T12:12:24;2.05;;;1.02;;
48823;SDS011;34640;53.590;10.054;2022-07-11T12:15:27;4.20;;;1.00;;
48823;SDS011;34640;53.590;10.054;2022-07-11T12:18:07;1.67;;;0.90;;
48823;SDS011;34640;53.590;10.054;2022-07-11T12:20:41;1.95;;;0.80;;
48823;SDS011;34640;53.590;10.054;2022-07-11T12:23:16;1.50;;;0.57;;
48823;SDS011;34640;53.590;10.054;2022-07-11T12:25:52;3.08;;;1.20;;
48823;SDS011;34640;53.590;10.054;2022-07-11T12:28:25;0.68;;;0.65;;
48823;SDS011;34640;53.590;10.054;2022-07-11T12:31:02;2.95;;;0.93;;
48823;SDS011;34640;53.590;10.054;2022-07-11T12:33:51;1.45;;;0.50;;
48823;SDS011;34640;53.590;10.054;2022-07-11T12:36:31;1.83;;;1.02;;
48823;SDS011;34640;53.590;10.054;2022-07-11T12:39:05;2.20;;;0.40;;
48823;SDS011;34640;53.590;10.054;2022-07-11T12:41:38;1.73;;;0.70;;
48823;SDS011;34640;53.590;10.054;2022-07-11T12:44:11;0.88;;;0.52;;
48823;SDS011;34640;53.590;10.054;2022-07-11T12:47:03;3.60;;;1.00;;
48823;SDS011;34640;53.590;10.054;2022-07-11T12:49:42;2.00;;;0.90;;
48823;SDS011;34640;53.590;10.054;2022-07-11T12:52:17;5.07;;;1.15;;
48823;SDS011;34640;53.590;10.054;2022-07-11T12:54:54;2.05;;;0.95;;
48823;SDS011;34640;53.590;10.054;2022-07-11T12:57:32;2.78;;;0.80;;
48823;SDS011;34640;53.590;10.054;2022-07-11T13:00:12;0.98;;;0.75;;
48823;SDS011;34640;53.590;10.054;2022-07-11T13:03:12;1.65;;;0.80;;
48823;SDS011;34640;53.590;10.054;2022-07-11T13:06:03;2.55;;;0.80;;
48823;SDS011;34640;53.590;10.054;2022-07-11T13:08:36;2.80;;;1.42;;
48823;SDS011;34640;53.590;10.054;2022-07-11T13:11:17;3.45;;;1.05;;
48823;SDS011;34640;53.590;10.054;2022-07-11T13:13:52;1.63;;;0.90;;
48823;SDS011;34640;53.590;10.054;2022-07-11T13:16:25;2.78;;;1.13;;
48823;SDS011;34640;53.590;10.054;2022-07-11T13:18:58;2.22;;;0.70;;
48823;SDS011;34640;53.590;10.054;2022-07-11T13:21:35;2.10;;;0.80;;
48823;SDS011;34640;53.590;10.054;2022-07-11T13:24:08;2.72;;;0.90;;
48823;SDS011;34640;53.590;10.054;2022-07-11T13:26:42;2.33;;;0.80;;
48823;SDS011;34640;53.590;10.054;2022-07-11T13:29:14;1.35;;;0.80;;
48823;SDS011;34640;53.590;10.054;2022-07-11T13:31:49;0.98;;;0.40;;
48823;SDS011;34640;53.590;10.054;2022-07-11T13:34:22;3.53;;;1.25;;
48823;SDS011;34640;53.590;10.054;2022-07-11T13:36:56;2.25;;;0.80;;
48823;SDS011;34640;53.590;10.054;2022-07-11T13:39:30;1.92;;;0.60;;
48823;SDS011;34640;53.590;10.054;2022-07-11T13:42:03;2.10;;;0.70;;
48823;SDS011;34640;53.590;10.054;2022-07-11T13:44:36;2.88;;;0.85;;
48823;SDS011;34640;53.590;10.054;2022-07-11T13:47:09;2.85;;;0.98;;
48823;SDS011;34640;53.590;10.054;2022-07-11T13:49:43;2.95;;;1.35;;
48823;SDS011;34640;53.590;10.054;2022-07-11T13:52:18;1.10;;;0.60;;
48823;SDS011;34640;53.590;10.054;2022-07-11T13:54:57;3.65;;;0.50;;
48823;SDS011;34640;53.590;10.054;2022-07-11T13:57:31;1.05;;;0.50;;
48823;SDS011;34640;53.590;10.054;2022-07-11T14:00:05;3.05;;;1.70;;
48823;SDS011;34640;53.590;10.054;2022-07-11T14:02:39;2.60;;;1.20;;
48823;SDS011;34640;53.590;10.054;2022-07-11T14:05:12;2.45;;;0.93;;
48823;SDS011;34640;53.590;10.054;2022-07-11T14:07:47;3.58;;;1.00;;
48823;SDS011;34640;53.590;10.054;2022-07-11T14:10:21;3.13;;;0.80;;
48823;SDS011;34640;53.590;10.054;2022-07-11T14:13:05;2.25;;;0.73;;
48823;SDS011;34640;53.590;10.054;2022-07-11T14:15:38;0.65;;;0.43;;
48823;SDS011;34640;53.590;10.054;2022-07-11T14:18:12;2.60;;;0.47;;
48823;SDS011;34640;53.590;10.054;2022-07-11T14:20:45;1.88;;;0.55;;
48823;SDS011;34640;53.590;10.054;2022-07-11T14:23:20;1.67;;;0.50;;
48823;SDS011;34640;53.590;10.054;2022-07-11T14:25:54;1.08;;;0.38;;
48823;SDS011;34640;53.590;10.054;2022-07-11T14:28:27;2.67;;;0.60;;
48823;SDS011;34640;53.590;10.054;2022-07-11T14:31:00;1.90;;;0.75;;
48823;SDS011;34640;53.590;10.054;2022-07-11T14:33:34;1.10;;;0.63;;
48823;SDS011;34640;53.590;10.054;2022-07-11T14:36:07;0.88;;;0.55;;
48823;SDS011;34640;53.590;10.054;2022-07-11T14:38:41;1.65;;;1.10;;
48823;SDS011;34640;53.590;10.054;2022-07-11T14:41:14;2.30;;;0.82;;
48823;SDS011;34640;53.590;10.054;2022-07-11T14:43:49;2.45;;;0.55;;
48823;SDS011;34640;53.590;10.054;2022-07-11T14:46:22;2.05;;;0.55;;
48823;SDS011;34640;53.590;10.054;2022-07-11T14:48:55;1.27;;;0.52;;
48823;SDS011;34640;53.590;10.054;2022-07-11T14:51:29;1.73;;;0.50;;
48823;SDS011;34640;53.590;10.054;2022-07-11T14:54:24;1.70;;;0.93;;
48823;SDS011;34640;53.590;10.054;2022-07-11T14:56:57;2.47;;;0.65;;
48823;SDS011;34640;53.590;10.054;2022-07-11T14:59:30;1.65;;;0.60;;
48823;SDS011;34640;53.590;10.054;2022-07-11T15:02:03;1.42;;;0.90;;
48823;SDS011;34640;53.590;10.054;2022-07-11T15:04:36;1.02;;;0.40;;
48823;SDS011;34640;53.590;10.054;2022-07-11T15:07:19;3.25;;;0.50;;
48823;SDS011;34640;53.590;10.054;2022-07-11T15:10:16;2.35;;;0.40;;
48823;SDS011;34640;53.590;10.054;2022-07-11T15:13:06;1.80;;;0.47;;
48823;SDS011;34640;53.590;10.054;2022-07-11T15:15:39;1.55;;;0.50;;
48823;SDS011;34640;53.590;10.054;2022-07-11T15:18:12;1.75;;;0.20;;
48823;SDS011;34640;53.590;10.054;2022-07-11T15:20:45;0.70;;;0.35;;
48823;SDS011;34640;53.590;10.054;2022-07-11T15:23:18;1.38;;;0.43;;
48823;SDS011;34640;53.590;10.054;2022-07-11T15:25:53;3.05;;;0.50;;
48823;SDS011;34640;53.590;10.054;2022-07-11T15:28:26;1.52;;;0.60;;